createdAt,value
2022-08-25T00:01:18.255Z,100967.28
2022-08-25T00:03:45.565Z,100960.66
2022-08-25T00:06:13.693Z,100953.72
2022-08-25T00:08:41.326Z,100964.91
2022-08-25T00:11:21.629Z,100963.59
2022-08-25T00:13:53.348Z,100957.25
2022-08-25T00:16:22.679Z,100963.34
2022-08-25T00:18:56.791Z,100962.28
2022-08-25T00:21:24.971Z,100963.56
2022-08-25T00:23:51.672Z,100965.69
2022-08-25T00:26:19.503Z,100962.78
2022-08-25T00:28:46.292Z,100962.59
2022-08-25T00:31:20.558Z,100964.50
2022-08-25T00:33:48.971Z,100964.91
2022-08-25T00:36:16.412Z,100955.84
2022-08-25T00:38:45.038Z,100964.06
2022-08-25T00:41:15.579Z,100965.72
2022-08-25T00:43:42.655Z,100962.19
2022-08-25T00:46:10.715Z,100957.75
2022-08-25T00:48:39.095Z,100958.81
2022-08-25T00:51:09.780Z,100948.91
2022-08-25T00:53:37.508Z,100950.78
2022-08-25T00:56:04.385Z,100947.22
2022-08-25T00:58:32.645Z,100947.44
2022-08-25T01:00:59.946Z,100946.78
2022-08-25T01:03:33.082Z,100950.38
2022-08-25T01:06:04.560Z,100946.16
2022-08-25T01:08:32.610Z,100948.50
2022-08-25T01:11:02.830Z,100937.19
2022-08-25T01:13:33.899Z,100949.19
2022-08-25T01:16:01.448Z,100943.09
2022-08-25T01:18:28.227Z,100945.22
2022-08-25T01:20:56.537Z,100951.56
2022-08-25T01:23:24.247Z,100943.78
2022-08-25T01:26:01.501Z,100945.69
2022-08-25T01:28:28.259Z,100941.91
2022-08-25T01:30:55.111Z,100954.13
2022-08-25T01:33:23.353Z,100944.41
2022-08-25T01:35:50.211Z,100945.69
2022-08-25T01:38:18.567Z,100948.84
2022-08-25T01:40:45.309Z,100943.41
2022-08-25T01:43:14.766Z,100944.25
2022-08-25T01:45:44.514Z,100941.94
2022-08-25T01:48:12.198Z,100940.25
2022-08-25T01:50:40.120Z,100944.06
2022-08-25T01:53:30.229Z,100942.19
2022-08-25T01:56:05.426Z,100946.59
2022-08-25T01:58:39.411Z,100946.66
2022-08-25T02:01:09.133Z,100947.75
2022-08-25T02:03:42.045Z,100942.47
2022-08-25T02:06:11.795Z,100939.75
2022-08-25T02:08:38.679Z,100931.13
2022-08-25T02:11:05.867Z,100933.28
2022-08-25T02:13:32.748Z,100935.22
2022-08-25T02:16:01.264Z,100925.94
2022-08-25T02:18:28.108Z,100937.94
2022-08-25T02:20:54.751Z,100933.09
2022-08-25T02:23:21.452Z,100927.16
2022-08-25T02:25:48.126Z,100938.75
2022-08-25T02:28:14.928Z,100938.75
2022-08-25T02:30:43.082Z,100935.78
2022-08-25T02:33:10.544Z,100935.78
2022-08-25T02:35:37.823Z,100938.97
2022-08-25T02:38:05.641Z,100933.50
2022-08-25T02:40:32.603Z,100943.59
2022-08-25T02:42:59.380Z,100935.78
2022-08-25T02:45:26.065Z,100938.75
2022-08-25T02:47:53.584Z,100946.31
2022-08-25T02:50:20.923Z,100938.28
2022-08-25T02:52:50.564Z,100931.78
2022-08-25T02:55:19.092Z,100929.66
2022-08-25T02:57:45.730Z,100932.41
2022-08-25T03:00:14.721Z,100927.38
2022-08-25T03:02:41.990Z,100925.91
2022-08-25T03:05:11.769Z,100930.97
2022-08-25T03:07:38.731Z,100932.84
2022-08-25T03:10:14.378Z,100936.00
2022-08-25T03:12:41.741Z,100923.41
2022-08-25T03:15:12.800Z,100925.91
2022-08-25T03:17:40.105Z,100930.13
2022-08-25T03:20:08.123Z,100932.66
2022-08-25T03:22:34.923Z,100916.91
2022-08-25T03:25:24.015Z,100928.25
2022-08-25T03:27:51.979Z,100931.84
2022-08-25T03:30:19.548Z,100922.81
2022-08-25T03:32:46.584Z,100923.03
2022-08-25T03:35:13.565Z,100924.13
2022-08-25T03:37:40.874Z,100924.13
2022-08-25T03:40:10.247Z,100915.06
2022-08-25T03:42:45.250Z,100931.47
2022-08-25T03:45:14.657Z,100922.22
2022-08-25T03:47:41.420Z,100927.72
2022-08-25T03:50:10.782Z,100937.16
2022-08-25T03:52:41.806Z,100923.06
2022-08-25T03:55:12.097Z,100917.16
2022-08-25T03:57:38.905Z,100919.03
2022-08-25T04:00:12.351Z,100923.25
2022-08-25T04:02:39.938Z,100918.00
2022-08-25T04:05:07.610Z,100914.19
2022-08-25T04:07:34.402Z,100921.16
2022-08-25T04:10:01.156Z,100924.72
2022-08-25T04:12:28.009Z,100918.63
2022-08-25T04:14:54.676Z,100925.38
2022-08-25T04:17:22.058Z,100913.56
2022-08-25T04:19:48.933Z,100925.78
2022-08-25T04:22:15.714Z,100918.22
2022-08-25T04:24:42.763Z,100925.38
2022-08-25T04:27:09.530Z,100916.94
2022-08-25T04:29:36.230Z,100916.28
2022-08-25T04:32:03.294Z,100922.19
2022-08-25T04:34:31.433Z,100928.50
2022-08-25T04:37:03.786Z,100926.59
2022-08-25T04:39:31.238Z,100923.44
2022-08-25T04:41:57.953Z,100922.38
2022-08-25T04:44:25.477Z,100912.06
2022-08-25T04:46:52.352Z,100934.56
2022-08-25T04:49:19.277Z,100925.50
2022-08-25T04:51:46.049Z,100925.09
2022-08-25T04:54:17.070Z,100926.16
2022-08-25T04:56:44.706Z,100931.84
2022-08-25T04:59:14.292Z,100928.66
2022-08-25T05:01:42.885Z,100918.84
2022-08-25T05:04:14.471Z,100924.13
2022-08-25T05:06:43.601Z,100928.50
2022-08-25T05:09:11.887Z,100917.53
2022-08-25T05:11:39.025Z,100918.56
2022-08-25T05:14:11.483Z,100920.03
2022-08-25T05:16:39.150Z,100922.56
2022-08-25T05:19:06.100Z,100909.53
2022-08-25T05:21:32.919Z,100930.34
2022-08-25T05:27:42.286Z,100917.88
2022-08-25T05:30:11.511Z,100918.47
2022-08-25T05:32:39.009Z,100920.41
2022-08-25T05:35:06.753Z,100927.56
2022-08-25T05:37:34.106Z,100917.91
2022-08-25T05:40:01.160Z,100915.84
2022-08-25T05:42:28.464Z,100918.53
2022-08-25T05:44:55.584Z,100919.59
2022-08-25T05:47:22.409Z,100919.34
2022-08-25T05:49:49.071Z,100915.97
2022-08-25T05:52:18.233Z,100913.28
2022-08-25T05:54:47.000Z,100928.69
2022-08-25T05:57:13.936Z,100924.31
2022-08-25T05:59:55.805Z,100927.69
2022-08-25T06:02:41.037Z,100918.00
2022-08-25T06:05:09.444Z,100920.69
2022-08-25T06:07:36.254Z,100917.19
2022-08-25T06:10:08.043Z,100917.59
2022-08-25T06:12:36.225Z,100918.09
2022-08-25T06:15:03.958Z,100918.53
2022-08-25T06:17:30.836Z,100910.34
2022-08-25T06:19:57.576Z,100908.69
2022-08-25T06:22:25.884Z,100903.97
2022-08-25T06:24:53.503Z,100906.28
2022-08-25T06:27:20.283Z,100902.28
2022-08-25T06:29:46.919Z,100912.28
2022-08-25T06:32:13.917Z,100908.72
2022-08-25T06:34:40.520Z,100895.91
2022-08-25T06:37:07.415Z,100898.94
2022-08-25T06:39:34.703Z,100903.09
2022-08-25T06:42:01.442Z,100896.09
2022-08-25T06:44:28.502Z,100910.13
2022-08-25T06:46:55.592Z,100909.53
2022-08-25T06:49:22.481Z,100910.13
2022-08-25T06:51:50.282Z,100919.19
2022-08-25T06:54:17.037Z,100913.31
2022-08-25T06:56:43.734Z,100923.44
2022-08-25T06:59:11.350Z,100914.31
2022-08-25T07:01:38.506Z,100909.38
2022-08-25T07:04:11.809Z,100908.47
2022-08-25T07:06:40.625Z,100915.16
2022-08-25T07:12:50.541Z,100901.00
2022-08-25T07:15:20.409Z,100904.78
2022-08-25T07:17:48.274Z,100905.16
2022-08-25T07:20:16.783Z,100909.34
2022-08-25T07:22:43.939Z,100903.91
2022-08-25T07:25:12.140Z,100904.44
2022-08-25T07:27:39.255Z,100892.66
2022-08-25T07:30:09.459Z,100893.63
2022-08-25T07:32:38.075Z,100890.31
2022-08-25T07:35:19.571Z,100888.94
2022-08-25T07:37:57.024Z,100890.16
2022-08-25T07:40:30.453Z,100887.19
2022-08-25T07:43:00.092Z,100882.78
2022-08-25T07:45:31.807Z,100883.03
2022-08-25T07:48:05.797Z,100883.66
2022-08-25T07:50:34.239Z,100882.28
2022-08-25T07:53:01.124Z,100879.50
2022-08-25T07:55:30.357Z,100895.00
2022-08-25T07:57:59.857Z,100890.50
2022-08-25T08:00:30.031Z,100890.00
2022-08-25T08:02:57.827Z,100889.47
2022-08-25T08:05:26.182Z,100899.03
2022-08-25T08:07:54.268Z,100887.31
2022-08-25T08:10:54.018Z,100886.06
2022-08-25T08:13:10.587Z,100888.75
2022-08-25T08:15:38.052Z,100891.84
2022-08-25T08:19:01.322Z,100882.00
2022-08-25T08:21:33.242Z,100881.50
2022-08-25T08:24:00.688Z,100880.56
2022-08-25T08:26:48.254Z,100886.00
2022-08-25T08:29:16.426Z,100882.16
2022-08-25T08:31:48.298Z,100879.50
2022-08-25T08:34:15.994Z,100880.31
2022-08-25T08:36:42.532Z,100877.22
2022-08-25T08:39:12.303Z,100875.59
2022-08-25T08:42:12.057Z,100874.78
2022-08-25T08:44:45.080Z,100874.25
2022-08-25T08:47:47.636Z,100875.88
2022-08-25T08:50:33.804Z,100882.91
2022-08-25T08:53:51.914Z,100880.22
2022-08-25T08:56:32.177Z,100884.06
2022-08-25T08:59:06.105Z,100880.34
2022-08-25T09:01:54.214Z,100881.69
2022-08-25T09:04:37.538Z,100884.75
2022-08-25T09:07:11.902Z,100871.78
2022-08-25T09:09:41.970Z,100870.69
2022-08-25T09:12:08.663Z,100863.31
2022-08-25T09:15:13.416Z,100864.28
2022-08-25T09:18:25.885Z,100843.22
2022-08-25T09:20:59.822Z,100849.16
2022-08-25T09:23:51.638Z,100854.06
2022-08-25T09:30:15.551Z,100841.50
2022-08-25T09:33:05.304Z,100841.50
2022-08-25T09:35:37.536Z,100846.34
2022-08-25T09:38:10.311Z,100840.25
2022-08-25T09:40:40.664Z,100833.06
2022-08-25T09:43:42.882Z,100841.19
2022-08-25T09:46:23.897Z,100855.34
2022-08-25T09:49:10.839Z,100842.66
2022-08-25T09:51:42.973Z,100839.06
2022-08-25T09:54:15.407Z,100839.41
2022-08-25T09:57:09.282Z,100829.25
2022-08-25T09:59:37.478Z,100830.59
2022-08-25T10:02:25.942Z,100832.22
2022-08-25T10:04:53.474Z,100830.56
2022-08-25T10:07:28.143Z,100832.41
2022-08-25T10:09:58.872Z,100826.47
2022-08-25T10:12:44.171Z,100818.34
2022-08-25T10:15:29.539Z,100826.44
2022-08-25T10:18:21.094Z,100819.34
2022-08-25T10:21:08.728Z,100814.16
2022-08-25T10:23:46.425Z,100809.09
2022-08-25T10:26:47.724Z,100807.97
2022-08-25T10:29:20.468Z,100807.97
2022-08-25T10:31:59.493Z,100802.59
2022-08-25T10:38:36.403Z,100796.75
2022-08-25T10:41:48.182Z,100799.13
2022-08-25T10:44:53.588Z,100782.16
2022-08-25T10:47:23.992Z,100788.22
2022-08-25T10:49:55.669Z,100778.59
2022-08-25T10:52:52.547Z,100779.03
2022-08-25T10:55:29.561Z,100787.19
2022-08-25T10:58:09.933Z,100778.63
2022-08-25T11:00:49.731Z,100756.16
2022-08-25T11:03:25.644Z,100774.75
2022-08-25T11:06:02.109Z,100763.13
2022-08-25T11:08:28.707Z,100753.56
2022-08-25T11:11:26.620Z,100744.66
2022-08-25T11:13:54.330Z,100761.75
2022-08-25T11:16:40.346Z,100749.69
2022-08-25T11:19:23.945Z,100747.19
2022-08-25T11:22:28.261Z,100736.56
2022-08-25T11:25:12.679Z,100732.78
2022-08-25T11:28:18.712Z,100737.00
2022-08-25T11:30:46.416Z,100727.22
2022-08-25T11:33:19.504Z,100727.03
2022-08-25T11:36:32.621Z,100723.38
2022-08-25T11:39:20.753Z,100721.41
2022-08-25T11:42:24.656Z,100712.97
2022-08-25T11:45:23.329Z,100706.00
2022-08-25T11:48:04.744Z,100711.28
2022-08-25T11:50:36.812Z,100718.47
2022-08-25T11:53:26.674Z,100710.19
2022-08-25T11:55:58.856Z,100704.72
2022-08-25T11:58:28.388Z,100704.31
2022-08-25T12:01:53.913Z,100716.22
2022-08-25T12:04:43.951Z,100707.31
2022-08-25T12:07:16.164Z,100721.22
2022-08-25T12:09:55.565Z,100711.91
2022-08-25T12:12:41.891Z,100707.47
2022-08-25T12:15:23.845Z,100703.47
2022-08-25T12:18:23.050Z,100703.41
2022-08-25T12:20:56.489Z,100704.03
2022-08-25T12:23:32.340Z,100711.66
2022-08-25T12:26:22.021Z,100694.28
2022-08-25T12:29:07.672Z,100700.91
2022-08-25T12:31:47.816Z,100703.63
2022-08-25T12:34:20.426Z,100698.94
2022-08-25T12:37:06.177Z,100689.94
2022-08-25T12:39:42.952Z,100698.06
2022-08-25T12:42:29.866Z,100692.09
2022-08-25T12:45:25.605Z,100687.22
2022-08-25T12:47:54.835Z,100694.28
2022-08-25T12:50:35.504Z,100694.59
2022-08-25T12:53:18.614Z,100690.69
2022-08-25T12:55:51.797Z,100680.63
2022-08-25T12:58:18.498Z,100671.66
2022-08-25T13:01:03.261Z,100687.59
2022-08-25T13:04:28.670Z,100662.59
2022-08-25T13:07:14.089Z,100672.81
2022-08-25T13:10:16.040Z,100660.69
2022-08-25T13:13:04.307Z,100660.59
2022-08-25T13:15:34.400Z,100666.69
2022-08-25T13:18:37.995Z,100663.03
2022-08-25T13:21:15.012Z,100664.34
2022-08-25T13:23:44.943Z,100665.03
2022-08-25T13:26:26.540Z,100653.34
2022-08-25T13:29:17.808Z,100670.53
2022-08-25T13:31:55.288Z,100660.50
2022-08-25T13:34:34.303Z,100651.38
2022-08-25T13:37:30.535Z,100656.69
2022-08-25T13:40:33.455Z,100653.44
2022-08-25T13:43:10.625Z,100644.22
2022-08-25T13:45:48.300Z,100643.13
2022-08-25T13:48:36.751Z,100650.91
2022-08-25T13:51:31.663Z,100652.94
2022-08-25T13:54:08.527Z,100632.91
2022-08-25T13:56:41.595Z,100628.00
2022-08-25T13:59:26.889Z,100638.72
2022-08-25T14:01:55.352Z,100631.03
2022-08-25T14:04:51.754Z,100631.31
2022-08-25T14:07:22.583Z,100632.09
2022-08-25T14:09:56.934Z,100626.78
2022-08-25T14:12:44.904Z,100631.50
2022-08-25T14:15:17.963Z,100639.25
2022-08-25T14:17:47.818Z,100626.31
2022-08-25T14:20:17.346Z,100631.69
2022-08-25T14:22:44.123Z,100628.00
2022-08-25T14:25:11.499Z,100623.00
2022-08-25T14:28:03.504Z,100625.56
2022-08-25T14:30:30.968Z,100617.13
2022-08-25T14:32:58.625Z,100612.16
2022-08-25T14:35:25.373Z,100613.88
2022-08-25T14:37:53.377Z,100617.72
2022-08-25T14:40:20.204Z,100607.88
2022-08-25T14:42:47.815Z,100618.97
2022-08-25T14:45:16.190Z,100609.44
2022-08-25T14:47:44.684Z,100613.56
2022-08-25T14:50:20.138Z,100603.44
2022-08-25T14:52:48.322Z,100608.53
2022-08-25T14:55:31.831Z,100611.09
2022-08-25T14:57:59.525Z,100605.88
2022-08-25T15:00:26.583Z,100611.31
2022-08-25T15:02:54.966Z,100603.28
2022-08-25T15:05:28.262Z,100604.91
2022-08-25T15:08:14.931Z,100598.00
2022-08-25T15:10:43.306Z,100602.94
2022-08-25T15:13:10.749Z,100597.50
2022-08-25T15:15:53.016Z,100587.75
2022-08-25T15:18:20.959Z,100597.22
2022-08-25T15:20:49.840Z,100593.13
2022-08-25T15:23:18.734Z,100586.03
2022-08-25T15:25:52.820Z,100592.13
2022-08-25T15:28:21.923Z,100585.69
2022-08-25T15:30:49.543Z,100588.44
2022-08-25T15:33:17.616Z,100572.97
2022-08-25T15:35:45.087Z,100577.59
2022-08-25T15:38:12.543Z,100572.97
2022-08-25T15:40:39.810Z,100581.06
2022-08-25T15:43:06.941Z,100576.84
2022-08-25T15:45:36.315Z,100571.75
2022-08-25T15:48:04.433Z,100571.63
2022-08-25T15:50:33.921Z,100571.28
2022-08-25T15:53:00.595Z,100569.50
2022-08-25T15:55:27.511Z,100562.59
2022-08-25T15:57:55.624Z,100561.81
2022-08-25T16:00:23.786Z,100555.31
2022-08-25T16:02:51.068Z,100555.44
2022-08-25T16:05:20.458Z,100548.00
2022-08-25T16:07:53.811Z,100551.03
2022-08-25T16:10:21.076Z,100539.41
2022-08-25T16:12:48.557Z,100541.81
2022-08-25T16:15:15.754Z,100530.81
2022-08-25T16:17:45.985Z,100545.59
2022-08-25T16:20:17.243Z,100539.84
2022-08-25T16:22:46.655Z,100539.41
2022-08-25T16:25:14.421Z,100542.75
2022-08-25T16:27:41.065Z,100540.81
2022-08-25T16:30:16.785Z,100535.00
2022-08-25T16:32:44.966Z,100534.72
2022-08-25T16:35:13.025Z,100529.53
2022-08-25T16:37:40.358Z,100522.13
2022-08-25T16:40:13.442Z,100538.09
2022-08-25T16:42:41.440Z,100528.97
2022-08-25T16:45:08.258Z,100515.69
2022-08-25T16:47:38.024Z,100512.66
2022-08-25T16:50:09.236Z,100519.88
2022-08-25T16:52:56.319Z,100513.25
2022-08-25T16:55:25.765Z,100515.03
2022-08-25T16:57:54.267Z,100499.00
2022-08-25T17:00:24.885Z,100511.63
2022-08-25T17:02:59.227Z,100508.75
2022-08-25T17:05:28.198Z,100504.69
2022-08-25T17:08:14.522Z,100500.28
2022-08-25T17:10:43.581Z,100503.38
2022-08-25T17:13:11.458Z,100497.00
2022-08-25T17:15:42.236Z,100501.00
2022-08-25T17:18:11.166Z,100501.06
2022-08-25T17:20:38.316Z,100501.63
2022-08-25T17:23:11.951Z,100494.97
2022-08-25T17:25:41.240Z,100495.22
2022-08-25T17:28:09.442Z,100495.06
2022-08-25T17:30:39.416Z,100496.75
2022-08-25T17:33:06.616Z,100504.28
2022-08-25T17:35:39.070Z,100497.41
2022-08-25T17:38:06.282Z,100497.75
2022-08-25T17:40:33.979Z,100501.97
2022-08-25T17:43:01.666Z,100509.22
2022-08-25T17:45:29.503Z,100512.66
2022-08-25T17:47:58.105Z,100504.63
2022-08-25T17:50:25.729Z,100518.56
2022-08-25T17:52:53.502Z,100506.38
2022-08-25T17:55:22.913Z,100509.75
2022-08-25T17:57:51.082Z,100524.13
2022-08-25T18:00:20.210Z,100519.72
2022-08-25T18:02:47.961Z,100527.78
2022-08-25T18:05:15.450Z,100523.63
2022-08-25T18:07:42.484Z,100530.03
2022-08-25T18:10:13.763Z,100518.44
2022-08-25T18:12:40.345Z,100528.44
2022-08-25T18:15:10.585Z,100520.38
2022-08-25T18:17:38.279Z,100529.84
2022-08-25T18:20:10.164Z,100527.59
2022-08-25T18:22:38.641Z,100527.88
2022-08-25T18:25:07.051Z,100527.88
2022-08-25T18:27:34.598Z,100520.41
2022-08-25T18:30:01.985Z,100533.44
2022-08-25T18:32:29.391Z,100530.09
2022-08-25T18:34:56.601Z,100538.13
2022-08-25T18:37:42.509Z,100545.91
2022-08-25T18:40:25.409Z,100538.97
2022-08-25T18:42:58.450Z,100545.34
2022-08-25T18:45:37.877Z,100553.38
2022-08-25T18:48:04.595Z,100552.28
2022-08-25T18:50:35.891Z,100561.16
2022-08-25T18:53:03.579Z,100557.78
2022-08-25T18:55:34.091Z,100563.84
2022-08-25T18:58:01.199Z,100562.16
2022-08-25T19:00:30.643Z,100570.47
2022-08-25T19:03:00.324Z,100578.75
2022-08-25T19:05:33.552Z,100576.22
2022-08-25T19:08:03.425Z,100576.53
2022-08-25T19:10:30.472Z,100571.44
2022-08-25T19:13:07.954Z,100570.81
2022-08-25T19:15:35.655Z,100581.00
2022-08-25T19:18:02.235Z,100583.47
2022-08-25T19:20:31.722Z,100593.16
2022-08-25T19:22:58.365Z,100593.44
2022-08-25T19:25:25.574Z,100587.63
2022-08-25T19:28:00.420Z,100598.13
2022-08-25T19:30:29.626Z,100602.00
2022-08-25T19:32:57.420Z,100603.94
2022-08-25T19:35:34.185Z,100600.06
2022-08-25T19:38:01.133Z,100603.09
2022-08-25T19:40:29.520Z,100597.50
2022-08-25T19:42:57.901Z,100597.09
2022-08-25T19:45:24.773Z,100600.34
2022-08-25T19:47:51.803Z,100609.19
2022-08-25T19:50:20.339Z,100613.22
2022-08-25T19:52:49.887Z,100600.63
2022-08-25T19:55:17.764Z,100613.69
2022-08-25T19:57:45.964Z,100607.41
2022-08-25T20:00:24.265Z,100606.78
2022-08-25T20:02:51.190Z,100606.22
2022-08-25T20:05:23.603Z,100608.97
2022-08-25T20:07:53.867Z,100604.53
2022-08-25T20:10:23.577Z,100610.56
2022-08-25T20:12:50.229Z,100619.31
2022-08-25T20:15:16.997Z,100612.63
2022-08-25T20:17:45.100Z,100609.25
2022-08-25T20:20:16.457Z,100605.63
2022-08-25T20:22:43.054Z,100617.69
2022-08-25T20:25:14.491Z,100616.22
2022-08-25T20:27:47.721Z,100629.16
2022-08-25T20:30:18.177Z,100622.69
2022-08-25T20:32:45.830Z,100622.50
2022-08-25T20:35:14.275Z,100617.25
2022-08-25T20:37:42.986Z,100623.59
2022-08-25T20:40:17.170Z,100624.69
2022-08-25T20:42:45.546Z,100629.63
2022-08-25T20:45:14.757Z,100628.69
2022-08-25T20:47:41.917Z,100632.31
2022-08-25T20:50:08.848Z,100634.47
2022-08-25T20:52:36.457Z,100637.19
2022-08-25T20:55:06.872Z,100627.50
2022-08-25T20:57:33.896Z,100637.69
2022-08-25T21:00:01.025Z,100629.34
2022-08-25T21:02:29.446Z,100634.72
2022-08-25T21:04:57.026Z,100634.31
2022-08-25T21:07:24.242Z,100641.22
2022-08-25T21:09:50.942Z,100640.84
2022-08-25T21:12:18.304Z,100640.34
2022-08-25T21:14:44.965Z,100638.94
2022-08-25T21:17:12.934Z,100640.25
2022-08-25T21:19:40.047Z,100641.09
2022-08-25T21:22:08.787Z,100651.22
2022-08-25T21:24:37.864Z,100647.31
2022-08-25T21:27:04.553Z,100642.69
2022-08-25T21:29:32.626Z,100642.47
2022-08-25T21:31:59.683Z,100638.63
2022-08-25T21:34:28.219Z,100651.72
2022-08-25T21:36:57.774Z,100653.81
2022-08-25T21:39:32.107Z,100645.44
2022-08-25T21:42:00.394Z,100651.34
2022-08-25T21:44:27.479Z,100650.88
2022-08-25T21:46:54.824Z,100642.28
2022-08-25T21:49:22.475Z,100638.94
2022-08-25T21:51:59.262Z,100639.53
2022-08-25T21:54:28.587Z,100645.25
2022-08-25T21:57:01.922Z,100648.84
2022-08-25T21:59:32.065Z,100653.72
2022-08-25T22:02:08.038Z,100650.81
2022-08-25T22:04:36.551Z,100648.47
2022-08-25T22:07:03.262Z,100652.53
2022-08-25T22:09:30.636Z,100642.63
2022-08-25T22:11:58.639Z,100647.88
2022-08-25T22:14:26.379Z,100654.81
2022-08-25T22:16:54.656Z,100662.56
2022-08-25T22:19:22.766Z,100659.94
2022-08-25T22:21:50.400Z,100665.81
2022-08-25T22:24:18.307Z,100668.78
2022-08-25T22:26:47.531Z,100665.25
2022-08-25T22:29:16.649Z,100663.88
2022-08-25T22:31:53.028Z,100668.59
2022-08-25T22:34:20.131Z,100665.25
2022-08-25T22:36:59.517Z,100665.56
2022-08-25T22:39:26.943Z,100673.44
2022-08-25T22:41:53.915Z,100670.22
2022-08-25T22:44:20.492Z,100676.53
2022-08-25T22:46:47.076Z,100673.78
2022-08-25T22:49:13.902Z,100675.47
2022-08-25T22:51:41.016Z,100673.16
2022-08-25T22:54:09.603Z,100676.66
2022-08-25T22:56:37.718Z,100673.38
2022-08-25T22:59:08.439Z,100673.34
2022-08-25T23:01:35.113Z,100669.50
2022-08-25T23:04:03.250Z,100678.03
2022-08-25T23:06:30.688Z,100675.41
2022-08-25T23:08:58.513Z,100671.16
2022-08-25T23:11:25.522Z,100667.69
2022-08-25T23:13:56.142Z,100667.50
2022-08-25T23:16:23.093Z,100663.28
2022-08-25T23:18:49.850Z,100667.75
2022-08-25T23:21:40.831Z,100665.84
2022-08-25T23:24:10.795Z,100653.13
2022-08-25T23:26:37.900Z,100650.97
2022-08-25T23:29:18.345Z,100650.38
2022-08-25T23:31:47.167Z,100641.66
2022-08-25T23:34:16.182Z,100645.22
2022-08-25T23:36:43.874Z,100646.56
2022-08-25T23:39:11.340Z,100644.41
2022-08-25T23:41:38.396Z,100653.72
2022-08-25T23:44:06.266Z,100648.59
2022-08-25T23:46:35.743Z,100640.41
2022-08-25T23:49:04.408Z,100642.22
2022-08-25T23:51:34.191Z,100643.88
2022-08-25T23:54:06.007Z,100640.28
2022-08-25T23:56:34.375Z,100638.75
2022-08-25T23:59:02.355Z,100646.53
